Portada
METAR-TAF:

METAR-TAF

Aeroports :

Uliànovsk, Rússia

latitud: 54-21N, longitud: 048-23E, altitud: 77 m

Observació

L'informe es va fer fa 43 minuts, a les 00:00 UTC
Vent 8 kt del Sud-Oest
Temperatura -5°C
Humitat 68%
Pressió 1005 hPa
Visibilitat: 8000 m

METAR: UWLW 020000Z 23004MPS 8000 NSC M05/M10 Q1005 R20/CLRD60 NOSIG RMK QFE749

Hora: 03:43 (00:43 UTC)

Pronòstic

L'informe es va fer fa 1 hora i 58 minuts, a les 22:45 UTC
Pronòstic vàlid del 02 a les 00 UTC al 02 a les 24 UTC
Vent 10 kt del Sud-Oest amb ràfegues de 19 kt
Visibilitat: 8000 m
Cel ennuvolat a una alçada de 2000 ft
Temporalment
l' 02 a les 00 UTC al 02 a les 15 UTC
Vent 12 kt del Oest/Sud-Oest amb ràfegues de 27 kt

TAF: UWLW 012245Z 0200/0224 22005G10MPS 8000 BKN020 TEMPO 0200/0215 25006G14MPS

Observacions i pronòstics meteorològics de més de 4000 aeroports (METAR i TAF).

Les estacions disponibles són els punts grocs i vermells al mapa.

Posi el ratolí al punt desitjat per veure el nom de l'estació.

Feu clic per veure les observacions i els pronòstics meteorològics.

Per canviar el mapa: feu clic els botons verds amb una creu de color negre per apropar; al botó verd amb un guió per allunyar la imatge; o en les fletxes verdes per a mapes adjacents.


METAR-TAF: